Time;durP1;ratioP1;P1;durP2;ratioP2;P2;SDS_P1;SDS_P2;PMS_P1;PMS_P2;Temp;Humidity;BMP_temperature;BMP_pressure;BME280_temperature;BME280_humidity;BME280_pressure;Samples;Min_cycle;Max_cycle;Signal;HPM_P1;HPM_P2
2023/08/23 00:00:04;;;;;;;5.07;2.43;;;15.70;99.90;;;;;;4863695;29;20677;-82
2023/08/23 00:02:29;;;;;;;3.80;3.00;;;15.70;99.90;;;;;;4863950;29;20938;-83
2023/08/23 00:04:55;;;;;;;4.23;2.20;;;15.70;99.90;;;;;;4864232;29;20432;-82
2023/08/23 00:07:20;;;;;;;7.50;2.27;;;15.70;99.90;;;;;;4864254;29;20509;-82
2023/08/23 00:09:46;;;;;;;6.07;3.40;;;15.60;99.90;;;;;;4863947;29;20240;-83
2023/08/23 00:12:12;;;;;;;5.80;2.73;;;15.60;99.90;;;;;;4864206;29;20689;-82
2023/08/23 00:14:38;;;;;;;4.67;3.07;;;15.60;99.90;;;;;;4863538;29;20196;-82
2023/08/23 00:17:04;;;;;;;5.63;3.10;;;15.60;99.90;;;;;;4864083;29;20243;-82
2023/08/23 00:19:30;;;;;;;6.93;3.50;;;15.70;99.90;;;;;;4863599;29;20949;-83
2023/08/23 00:21:55;;;;;;;4.30;2.90;;;15.50;99.90;;;;;;4863631;29;20208;-83
2023/08/23 00:24:21;;;;;;;5.17;2.60;;;15.50;99.90;;;;;;4864178;29;20656;-82
2023/08/23 00:26:46;;;;;;;4.33;2.57;;;15.40;99.90;;;;;;4863653;29;20196;-82
2023/08/23 00:29:12;;;;;;;4.13;2.97;;;15.40;99.90;;;;;;4863888;29;20172;-82
2023/08/23 00:31:37;;;;;;;4.83;3.00;;;15.40;99.90;;;;;;4863605;29;20221;-82
2023/08/23 00:34:03;;;;;;;4.53;3.50;;;15.40;99.90;;;;;;4863849;29;20184;-82
2023/08/23 00:36:29;;;;;;;7.13;3.50;;;15.30;99.90;;;;;;4863665;29;20677;-83
2023/08/23 00:38:55;;;;;;;6.07;3.30;;;15.30;99.90;;;;;;4863585;29;20191;-82
2023/08/23 00:41:24;;;;;;;4.00;3.20;;;15.30;99.90;;;;;;4863352;29;20208;-82
2023/08/23 00:43:50;;;;;;;4.33;2.97;;;15.30;99.90;;;;;;4863465;29;20441;-82
2023/08/23 00:46:17;;;;;;;10.30;3.90;;;15.30;99.90;;;;;;4863344;29;20413;-82
2023/08/23 00:48:44;;;;;;;4.70;4.10;;;15.20;99.90;;;;;;4863107;29;20180;-82
2023/08/23 00:51:12;;;;;;;6.27;3.57;;;15.20;99.90;;;;;;4863402;29;20407;-82
2023/08/23 00:53:38;;;;;;;5.47;3.47;;;15.20;99.90;;;;;;4863351;29;20409;-82
2023/08/23 00:56:04;;;;;;;3.80;3.30;;;15.20;99.90;;;;;;4863422;29;20500;-82
2023/08/23 00:58:30;;;;;;;5.57;3.50;;;15.20;99.90;;;;;;4863132;29;20413;-83
2023/08/23 01:00:57;;;;;;;7.63;4.60;;;15.30;99.90;;;;;;4863282;29;20391;-82
2023/08/23 01:03:22;;;;;;;3.20;2.90;;;15.20;99.90;;;;;;4862912;29;20701;-82
2023/08/23 01:06:23;;;;;;;7.67;3.30;;;15.20;99.90;;;;;;4863093;29;20425;-82
2023/08/23 01:09:04;;;;;;;6.03;3.63;;;15.10;99.90;;;;;;4862987;29;20220;-82
2023/08/23 01:11:36;;;;;;;4.77;3.70;;;15.10;99.90;;;;;;4863170;29;20413;-84
2023/08/23 01:14:22;;;;;;;17.53;4.33;;;15.00;99.90;;;;;;4863131;29;20437;-82
2023/08/23 01:16:49;;;;;;;5.60;4.17;;;15.00;99.90;;;;;;4862848;29;20409;-82
2023/08/23 01:19:30;;;;;;;3.90;3.40;;;15.00;99.90;;;;;;4862791;29;20544;-82
2023/08/23 01:21:57;;;;;;;5.37;3.70;;;15.00;99.90;;;;;;4863056;29;20787;-82
2023/08/23 01:24:23;;;;;;;11.80;3.97;;;14.90;99.90;;;;;;4862949;29;20428;-82
2023/08/23 01:26:48;;;;;;;5.77;3.63;;;14.90;99.90;;;;;;4862604;29;20762;-82
2023/08/23 01:29:15;;;;;;;5.13;3.60;;;14.90;99.90;;;;;;4863085;29;20271;-82
2023/08/23 01:31:44;;;;;;;7.93;3.77;;;14.90;99.90;;;;;;4862416;29;20823;-82
2023/08/23 01:34:25;;;;;;;8.00;3.10;;;14.80;99.90;;;;;;4861960;29;20416;-82
2023/08/23 01:36:53;;;;;;;5.37;3.30;;;14.80;99.90;;;;;;4862771;29;21113;-82
2023/08/23 01:39:24;;;;;;;7.50;3.87;;;14.80;99.90;;;;;;4861370;29;20925;-82
2023/08/23 01:41:50;;;;;;;7.07;3.77;;;14.80;99.90;;;;;;4862723;29;20462;-82
2023/08/23 01:44:16;;;;;;;9.20;4.07;;;14.70;99.90;;;;;;4862561;29;20417;-82
2023/08/23 01:46:41;;;;;;;5.40;3.83;;;14.70;99.90;;;;;;4862581;29;20922;-82
2023/08/23 01:49:07;;;;;;;4.43;3.47;;;14.70;99.90;;;;;;4862641;29;20191;-82
2023/08/23 01:51:32;;;;;;;6.40;3.17;;;14.70;99.90;;;;;;4862126;29;20184;-83
2023/08/23 01:53:58;;;;;;;8.90;4.10;;;14.70;99.90;;;;;;4862434;29;20199;-82
2023/08/23 01:56:24;;;;;;;5.83;3.90;;;14.70;99.90;;;;;;4862342;29;20191;-82
2023/08/23 01:58:49;;;;;;;6.03;4.23;;;14.60;99.90;;;;;;4860981;29;20192;-82
2023/08/23 02:01:15;;;;;;;4.63;3.70;;;14.60;99.90;;;;;;4862321;29;20590;-82
2023/08/23 02:03:40;;;;;;;5.50;3.77;;;14.60;99.90;;;;;;4862285;29;20184;-83
2023/08/23 02:06:06;;;;;;;4.63;4.13;;;14.60;99.90;;;;;;4862550;29;20180;-82
2023/08/23 02:08:31;;;;;;;4.87;3.53;;;14.50;99.90;;;;;;4862303;29;20231;-82
2023/08/23 02:10:57;;;;;;;6.53;4.13;;;14.50;99.90;;;;;;4862408;29;20258;-82
2023/08/23 02:13:23;;;;;;;5.00;3.97;;;14.50;99.90;;;;;;4862611;29;20564;-82
2023/08/23 02:15:48;;;;;;;8.43;4.17;;;14.50;99.90;;;;;;4861994;29;20188;-83
2023/08/23 02:18:14;;;;;;;6.90;3.93;;;14.50;99.90;;;;;;4862084;29;20188;-82
2023/08/23 02:20:39;;;;;;;11.07;3.97;;;14.50;99.90;;;;;;4861996;29;20184;-82
2023/08/23 02:23:05;;;;;;;5.30;4.10;;;14.40;99.90;;;;;;4862032;29;20239;-82
2023/08/23 02:25:30;;;;;;;5.00;3.83;;;14.50;99.90;;;;;;4862463;29;20188;-82
2023/08/23 02:27:57;;;;;;;4.83;3.80;;;14.40;99.90;;;;;;4862290;29;20510;-82
2023/08/23 02:30:22;;;;;;;4.63;4.23;;;14.40;99.90;;;;;;4863673;29;20188;-82
2023/08/23 02:32:48;;;;;;;9.13;4.33;;;14.40;99.90;;;;;;4862323;29;20417;-82
2023/08/23 02:35:14;;;;;;;7.73;4.00;;;14.30;99.90;;;;;;4862508;29;20195;-82
2023/08/23 02:37:39;;;;;;;6.07;4.50;;;14.40;99.90;;;;;;4861941;29;20229;-82
2023/08/23 02:40:05;;;;;;;6.17;4.30;;;14.40;99.90;;;;;;4862196;29;20532;-82
2023/08/23 02:42:31;;;;;;;5.17;3.60;;;14.40;99.90;;;;;;4862348;29;20582;-82
2023/08/23 02:44:56;;;;;;;5.73;3.83;;;14.30;99.90;;;;;;4862610;29;20432;-82
2023/08/23 02:47:22;;;;;;;6.20;3.80;;;14.30;99.90;;;;;;4865836;29;20191;-82
2023/08/23 02:49:48;;;;;;;6.50;4.27;;;14.30;99.90;;;;;;4865787;29;20535;-82
2023/08/23 02:52:13;;;;;;;6.73;4.53;;;14.30;99.90;;;;;;4865594;29;20278;-82
2023/08/23 02:54:39;;;;;;;7.50;4.17;;;14.30;99.90;;;;;;4865296;29;20211;-82
2023/08/23 02:57:04;;;;;;;11.43;4.67;;;14.30;99.90;;;;;;4865610;29;20184;-82
2023/08/23 02:59:30;;;;;;;9.30;4.13;;;14.30;99.90;;;;;;4865544;29;20187;-82
2023/08/23 03:01:55;;;;;;;4.30;3.90;;;14.30;99.90;;;;;;4865200;29;20294;-82
2023/08/23 03:04:21;;;;;;;5.40;3.90;;;14.30;99.90;;;;;;4865897;29;20270;-82
2023/08/23 03:06:46;;;;;;;4.83;4.10;;;14.20;99.90;;;;;;4865425;29;20185;-82
2023/08/23 03:09:12;;;;;;;4.67;3.57;;;14.20;99.90;;;;;;4865864;29;20232;-82
2023/08/23 03:11:38;;;;;;;5.87;4.00;;;14.20;99.90;;;;;;4865355;29;20218;-83
2023/08/23 03:14:03;;;;;;;6.90;5.40;;;14.20;99.90;;;;;;4864016;29;20660;-82
2023/08/23 03:16:29;;;;;;;9.20;4.87;;;14.10;99.90;;;;;;4865482;29;20188;-82
2023/08/23 03:18:55;;;;;;;6.43;4.63;;;14.20;99.90;;;;;;4865201;29;20184;-82
2023/08/23 03:21:21;;;;;;;10.13;4.73;;;14.10;99.90;;;;;;4865094;29;20215;-82
2023/08/23 03:23:46;;;;;;;8.73;5.57;;;14.10;99.90;;;;;;4863722;29;20421;-82
2023/08/23 03:26:12;;;;;;;6.70;4.43;;;14.10;99.90;;;;;;4865629;29;20690;-82
2023/08/23 03:28:37;;;;;;;7.43;4.77;;;14.10;99.90;;;;;;4865506;29;20525;-82
2023/08/23 03:31:03;;;;;;;7.80;4.60;;;14.10;99.90;;;;;;4865027;29;20180;-82
2023/08/23 03:33:29;;;;;;;5.70;4.53;;;14.10;99.90;;;;;;4865298;29;20635;-81
2023/08/23 03:35:55;;;;;;;4.33;3.93;;;14.00;99.90;;;;;;4864613;29;20461;-82
2023/08/23 03:38:21;;;;;;;4.47;3.80;;;14.00;99.90;;;;;;4865281;29;20448;-82
2023/08/23 03:40:46;;;;;;;11.23;4.90;;;14.00;99.90;;;;;;4864887;29;20602;-82
2023/08/23 03:43:12;;;;;;;5.30;4.23;;;14.00;99.90;;;;;;4865078;29;20215;-82
2023/08/23 03:45:48;;;;;;;9.13;4.73;;;14.00;99.90;;;;;;4865056;29;20599;-82
2023/08/23 03:48:15;;;;;;;5.80;4.67;;;13.90;99.90;;;;;;4864843;29;20672;-82
2023/08/23 03:50:40;;;;;;;5.50;4.80;;;13.90;99.90;;;;;;4864742;29;20413;-82
2023/08/23 03:53:06;;;;;;;6.40;4.90;;;13.90;99.90;;;;;;4864746;29;20427;-81
2023/08/23 03:55:32;;;;;;;7.00;5.10;;;13.90;99.90;;;;;;4864719;29;20533;-81
2023/08/23 03:57:57;;;;;;;5.43;4.73;;;13.90;99.90;;;;;;4864208;29;20180;-82
2023/08/23 04:00:23;;;;;;;6.63;5.33;;;13.90;99.90;;;;;;4863809;29;20240;-82
2023/08/23 04:02:50;;;;;;;6.30;4.43;;;13.90;99.90;;;;;;4864901;29;20552;-82
2023/08/23 04:05:15;;;;;;;7.20;5.00;;;13.90;99.90;;;;;;4864841;29;20276;-82
2023/08/23 04:07:41;;;;;;;10.30;5.60;;;13.90;99.90;;;;;;4864289;29;20456;-83
2023/08/23 04:10:07;;;;;;;6.30;5.13;;;13.90;99.90;;;;;;4864816;29;20176;-81
2023/08/23 04:12:33;;;;;;;10.67;5.90;;;13.90;99.90;;;;;;4864190;29;20657;-81
2023/08/23 04:14:58;;;;;;;5.73;5.23;;;13.90;99.90;;;;;;4864133;29;20413;-81
2023/08/23 04:17:24;;;;;;;7.73;5.00;;;13.90;99.90;;;;;;4847794;29;20195;-81
2023/08/23 04:19:50;;;;;;;6.97;5.07;;;13.80;99.90;;;;;;4864637;29;20188;-82
2023/08/23 04:22:15;;;;;;;7.73;5.90;;;13.80;99.90;;;;;;4864467;29;20218;-82
2023/08/23 04:24:41;;;;;;;12.00;6.50;;;13.80;99.90;;;;;;4864523;29;20231;-81
2023/08/23 04:27:07;;;;;;;9.40;6.00;;;13.90;99.90;;;;;;4864340;29;20218;-82
2023/08/23 04:29:32;;;;;;;11.80;5.50;;;13.80;99.90;;;;;;4864660;29;20246;-82
2023/08/23 04:31:58;;;;;;;7.37;5.27;;;13.90;99.90;;;;;;4863853;29;20233;-82
2023/08/23 04:34:23;;;;;;;6.40;5.10;;;13.90;99.90;;;;;;4864474;29;20531;-82
2023/08/23 04:36:49;;;;;;;9.70;5.97;;;13.90;99.90;;;;;;4864190;29;20206;-82
2023/08/23 04:39:14;;;;;;;10.23;6.00;;;13.90;99.90;;;;;;4864338;29;20184;-82
2023/08/23 04:41:40;;;;;;;7.80;5.70;;;13.90;99.90;;;;;;4864293;29;20212;-82
2023/08/23 04:44:05;;;;;;;10.47;6.97;;;13.90;99.90;;;;;;4863716;29;20264;-82
2023/08/23 04:46:31;;;;;;;9.27;5.70;;;13.90;99.90;;;;;;4863964;29;20192;-82
2023/08/23 04:48:57;;;;;;;7.57;5.30;;;13.90;99.90;;;;;;4864184;29;20185;-82
2023/08/23 04:51:23;;;;;;;7.90;5.70;;;13.90;99.90;;;;;;4864028;29;20192;-81
2023/08/23 04:53:49;;;;;;;7.13;5.87;;;14.00;99.90;;;;;;4864137;29;20264;-82
2023/08/23 04:56:14;;;;;;;9.00;6.10;;;14.00;99.90;;;;;;4863595;29;20469;-82
2023/08/23 04:58:40;;;;;;;7.30;5.90;;;14.00;99.90;;;;;;4863769;29;20192;-82
2023/08/23 05:01:05;;;;;;;5.80;5.30;;;14.00;99.90;;;;;;4862382;29;20212;-82
2023/08/23 05:03:32;;;;;;;7.43;5.77;;;14.10;99.90;;;;;;4863768;29;20191;-82
2023/08/23 05:05:58;;;;;;;10.50;6.03;;;14.10;99.90;;;;;;4863338;29;20180;-82
2023/08/23 05:08:24;;;;;;;8.00;5.97;;;14.10;99.90;;;;;;4861692;29;20495;-81
2023/08/23 05:10:53;;;;;;;8.87;6.30;;;14.10;99.90;;;;;;4863853;29;20421;-81
2023/08/23 05:13:20;;;;;;;7.40;6.10;;;14.10;99.90;;;;;;4863888;29;20191;-81
2023/08/23 05:15:54;;;;;;;6.23;5.60;;;14.10;99.90;;;;;;4863694;29;20421;-82
2023/08/23 05:18:19;;;;;;;7.13;5.57;;;14.20;99.90;;;;;;4863684;29;20522;-81
2023/08/23 05:20:46;;;;;;;6.37;5.07;;;14.20;99.90;;;;;;4863264;29;20417;-83
2023/08/23 05:23:11;;;;;;;8.50;6.00;;;14.20;99.90;;;;;;4863491;29;20200;-81
2023/08/23 05:25:37;;;;;;;12.00;7.03;;;14.30;99.90;;;;;;4863721;29;20801;-82
2023/08/23 05:28:03;;;;;;;11.53;6.07;;;14.30;99.90;;;;;;4862356;29;20204;-82
2023/08/23 05:30:31;;;;;;;10.83;7.30;;;14.40;99.90;;;;;;4863082;29;20614;-82
2023/08/23 05:32:56;;;;;;;9.73;6.43;;;14.40;99.90;;;;;;4862972;29;20547;-82
2023/08/23 05:35:22;;;;;;;11.23;7.07;;;14.50;99.90;;;;;;4862139;29;20413;-82
2023/08/23 05:37:47;;;;;;;9.87;8.13;;;14.50;99.90;;;;;;4862987;29;20600;-82
2023/08/23 05:40:13;;;;;;;9.83;6.67;;;14.60;99.90;;;;;;4863317;29;20196;-82
2023/08/23 05:42:39;;;;;;;8.87;7.43;;;14.60;99.90;;;;;;4862588;29;20688;-81
2023/08/23 05:45:05;;;;;;;7.53;6.80;;;14.70;99.90;;;;;;4862938;29;20532;-82
2023/08/23 05:47:30;;;;;;;7.97;7.17;;;14.80;99.90;;;;;;4863630;29;20180;-82
2023/08/23 05:49:56;;;;;;;8.30;7.03;;;14.90;99.90;;;;;;4863135;29;20827;-81
2023/08/23 05:52:21;;;;;;;15.57;7.30;;;14.90;99.90;;;;;;4862959;29;20187;-81
2023/08/23 05:54:47;;;;;;;12.30;7.23;;;15.00;99.90;;;;;;4863026;29;20203;-83
2023/08/23 05:57:13;;;;;;;14.37;8.00;;;15.00;99.90;;;;;;4862711;29;20184;-82
2023/08/23 05:59:38;;;;;;;8.47;6.97;;;15.10;99.90;;;;;;4862059;29;20192;-82
2023/08/23 06:02:04;;;;;;;15.77;8.40;;;15.20;99.90;;;;;;4862181;29;20211;-82
2023/08/23 06:04:29;;;;;;;12.17;8.87;;;15.20;99.90;;;;;;4861197;29;20199;-82
2023/08/23 06:06:55;;;;;;;12.50;9.00;;;15.30;99.90;;;;;;4862211;29;20203;-82
2023/08/23 06:09:21;;;;;;;15.47;8.70;;;15.40;99.90;;;;;;4862761;29;20244;-82
2023/08/23 06:11:46;;;;;;;8.47;7.40;;;15.50;99.90;;;;;;4862352;29;20697;-82
2023/08/23 06:14:38;;;;;;;14.40;9.00;;;15.60;99.90;;;;;;4862328;29;20640;-82
2023/08/23 06:17:03;;;;;;;14.37;8.30;;;15.70;99.90;;;;;;4858315;29;20223;-82
2023/08/23 06:19:29;;;;;;;8.07;7.13;;;15.70;99.90;;;;;;4862452;29;20885;-82
2023/08/23 06:21:55;;;;;;;10.07;7.23;;;15.70;99.90;;;;;;4862511;29;20211;-82
2023/08/23 06:24:20;;;;;;;9.07;6.47;;;15.80;99.90;;;;;;4862276;29;20191;-82
2023/08/23 06:26:46;;;;;;;15.77;7.83;;;15.90;99.90;;;;;;4862575;29;20643;-82
2023/08/23 06:29:12;;;;;;;8.20;7.37;;;16.00;99.90;;;;;;4862244;29;20184;-82
2023/08/23 06:31:38;;;;;;;8.03;6.77;;;16.10;99.90;;;;;;4862094;29;20982;-81
2023/08/23 06:34:04;;;;;;;8.40;7.50;;;16.20;99.90;;;;;;4861934;29;20184;-82
2023/08/23 06:36:29;;;;;;;10.47;8.40;;;16.30;99.90;;;;;;4862150;29;20184;-82
2023/08/23 06:38:55;;;;;;;13.30;7.70;;;16.40;99.90;;;;;;4862270;29;20652;-83
2023/08/23 06:41:20;;;;;;;22.63;8.57;;;16.40;99.90;;;;;;4862411;29;20184;-82
2023/08/23 06:43:47;;;;;;;11.20;8.27;;;16.40;99.90;;;;;;4862188;29;20180;-82
2023/08/23 06:46:13;;;;;;;11.87;9.30;;;16.50;99.90;;;;;;4861633;29;20630;-82
2023/08/23 06:48:39;;;;;;;9.67;7.47;;;16.50;99.90;;;;;;4861966;29;20433;-82
2023/08/23 06:51:04;;;;;;;9.67;7.70;;;16.60;99.90;;;;;;4861940;29;20255;-82
2023/08/23 06:53:31;;;;;;;12.90;8.47;;;16.80;99.90;;;;;;4862193;29;20177;-82
2023/08/23 06:55:57;;;;;;;13.57;9.00;;;16.90;99.90;;;;;;4861712;29;20192;-82
2023/08/23 06:58:22;;;;;;;13.13;8.17;;;17.00;99.90;;;;;;4860956;29;20536;-82
2023/08/23 07:00:48;;;;;;;7.07;6.43;;;17.00;99.90;;;;;;4861815;29;20184;-82
2023/08/23 07:03:13;;;;;;;13.63;8.67;;;17.10;99.90;;;;;;4861866;29;20268;-82
2023/08/23 07:05:39;;;;;;;7.50;6.80;;;17.20;99.90;;;;;;4862053;29;20267;-82
2023/08/23 07:08:05;;;;;;;11.47;6.90;;;17.20;99.90;;;;;;4861509;29;20232;-82
2023/08/23 07:10:30;;;;;;;11.27;7.70;;;17.30;99.90;;;;;;4861597;29;20181;-82
2023/08/23 07:12:56;;;;;;;9.30;7.67;;;17.40;99.90;;;;;;4861646;29;20184;-83
2023/08/23 07:15:22;;;;;;;14.23;8.77;;;17.50;99.90;;;;;;4861707;29;20207;-81
2023/08/23 07:17:49;;;;;;;14.57;6.70;;;17.60;99.90;;;;;;4861779;29;20819;-83
2023/08/23 07:20:15;;;;;;;12.23;8.27;;;17.80;99.90;;;;;;4861807;29;20425;-82
2023/08/23 07:22:41;;;;;;;9.57;7.07;;;17.90;99.90;;;;;;4861707;29;20471;-82
2023/08/23 07:25:08;;;;;;;11.40;7.70;;;18.00;99.90;;;;;;4860376;29;20909;-82
2023/08/23 07:27:33;;;;;;;9.63;8.07;;;18.10;99.90;;;;;;4861856;29;20421;-82
2023/08/23 07:29:59;;;;;;;11.30;7.67;;;18.20;99.90;;;;;;4861473;29;20428;-83
2023/08/23 07:32:25;;;;;;;8.50;7.70;;;18.30;99.90;;;;;;4863853;29;20536;-82
2023/08/23 07:34:51;;;;;;;13.37;8.33;;;18.40;99.90;;;;;;4865287;29;20224;-82
2023/08/23 07:37:17;;;;;;;15.10;7.27;;;18.50;99.90;;;;;;4863991;29;20424;-82
2023/08/23 07:39:43;;;;;;;8.93;7.33;;;18.70;99.90;;;;;;4864904;29;20211;-82
2023/08/23 07:42:09;;;;;;;16.60;6.80;;;18.90;99.90;;;;;;4863819;29;20460;-83
2023/08/23 07:44:34;;;;;;;9.17;7.00;;;19.00;99.90;;;;;;4864845;29;20425;-82
2023/08/23 07:47:00;;;;;;;13.03;6.63;;;19.10;99.90;;;;;;4864278;29;20212;-82
2023/08/23 07:49:26;;;;;;;8.70;5.90;;;19.30;99.90;;;;;;4864985;29;20192;-82
2023/08/23 07:51:51;;;;;;;7.90;6.37;;;19.50;99.90;;;;;;4864453;29;20196;-82
2023/08/23 07:54:17;;;;;;;8.33;5.07;;;19.50;99.90;;;;;;4864454;29;20287;-82
2023/08/23 07:56:43;;;;;;;9.83;6.17;;;19.50;99.90;;;;;;4864184;29;20583;-82
2023/08/23 07:59:08;;;;;;;9.63;5.60;;;19.60;99.90;;;;;;4864308;29;20189;-82
2023/08/23 08:01:34;;;;;;;9.83;5.80;;;19.70;99.90;;;;;;4864306;29;20560;-82
2023/08/23 08:04:00;;;;;;;11.57;5.47;;;19.70;99.90;;;;;;4864297;29;20220;-83
2023/08/23 08:06:25;;;;;;;8.60;5.00;;;19.80;99.90;;;;;;4864267;29;20264;-82
2023/08/23 08:08:51;;;;;;;9.93;5.57;;;20.00;99.90;;;;;;4863846;29;20234;-82
2023/08/23 08:11:16;;;;;;;8.30;4.77;;;20.00;99.90;;;;;;4863586;29;20191;-82
2023/08/23 08:13:42;;;;;;;5.53;5.07;;;20.10;99.90;;;;;;4862751;29;20192;-82
2023/08/23 08:16:14;;;;;;;6.20;4.93;;;20.10;99.90;;;;;;4863751;29;20216;-82
2023/08/23 08:18:40;;;;;;;11.47;5.00;;;20.30;99.90;;;;;;4863766;29;20188;-82
2023/08/23 08:21:06;;;;;;;9.50;4.43;;;20.60;99.90;;;;;;4862370;29;20478;-82
2023/08/23 08:23:32;;;;;;;8.93;4.90;;;21.00;99.90;;;;;;4864242;29;20437;-82
2023/08/23 08:25:58;;;;;;;8.07;4.63;;;21.30;99.90;;;;;;4863476;29;20387;-83
2023/08/23 08:28:24;;;;;;;6.93;4.30;;;21.40;99.90;;;;;;4863817;29;20388;-82
2023/08/23 08:30:50;;;;;;;6.90;4.00;;;21.80;99.90;;;;;;4864031;29;20588;-82
2023/08/23 08:33:16;;;;;;;6.63;3.70;;;21.90;99.90;;;;;;4863090;29;20421;-82
2023/08/23 08:35:43;;;;;;;6.53;3.90;;;22.20;99.90;;;;;;4867269;29;20176;-81
2023/08/23 08:38:09;;;;;;;5.50;4.20;;;22.30;99.90;;;;;;4865369;29;20438;-83
2023/08/23 08:40:37;;;;;;;3.90;3.40;;;22.60;99.90;;;;;;4863392;29;20417;-82
2023/08/23 08:43:03;;;;;;;8.80;3.90;;;22.20;99.90;;;;;;4862827;29;20457;-83
2023/08/23 08:45:29;;;;;;;7.60;3.43;;;22.70;99.90;;;;;;4863210;29;20927;-82
2023/08/23 08:47:55;;;;;;;9.43;3.47;;;23.20;99.90;;;;;;4861732;29;20432;-83
2023/08/23 08:50:21;;;;;;;4.33;3.37;;;23.10;99.90;;;;;;4862974;29;20422;-83
2023/08/23 08:52:51;;;;;;;3.67;3.13;;;23.80;99.90;;;;;;4863074;29;20184;-82
2023/08/23 08:55:21;;;;;;;6.47;3.30;;;23.80;99.90;;;;;;4862810;29;20188;-82
2023/08/23 08:57:52;;;;;;;5.23;2.77;;;24.30;99.90;;;;;;4863348;29;20409;-83
2023/08/23 09:00:21;;;;;;;4.00;2.67;;;24.90;99.90;;;;;;4862721;29;20446;-83
2023/08/23 09:02:47;;;;;;;3.63;3.00;;;24.80;99.90;;;;;;4861463;29;20814;-82
2023/08/23 09:05:15;;;;;;;5.20;2.77;;;24.60;99.90;;;;;;4862497;29;20425;-82
2023/08/23 09:07:41;;;;;;;3.97;2.77;;;25.30;99.90;;;;;;4862334;29;21356;-83
2023/08/23 09:10:07;;;;;;;3.43;2.40;;;25.10;99.90;;;;;;4862597;29;20484;-83
2023/08/23 09:12:33;;;;;;;5.23;2.70;;;25.80;99.90;;;;;;4862485;29;20922;-82
2023/08/23 09:15:06;;;;;;;4.80;2.60;;;26.30;99.90;;;;;;4862129;29;20204;-86
2023/08/23 09:17:35;;;;;;;4.73;2.60;;;26.70;99.90;;;;;;4862277;29;20160;-83
2023/08/23 09:20:08;;;;;;;4.60;2.63;;;26.70;99.90;;;;;;4862001;29;20810;-84
2023/08/23 09:22:35;;;;;;;4.77;2.50;;;26.40;99.90;;;;;;4862087;29;20476;-82
2023/08/23 09:25:02;;;;;;;3.67;2.40;;;26.40;99.90;;;;;;4861657;29;20421;-83
2023/08/23 09:27:27;;;;;;;2.93;2.03;;;26.70;99.90;;;;;;4862041;29;20421;-83
2023/08/23 09:29:54;;;;;;;5.43;2.23;;;27.20;99.90;;;;;;4862154;29;20417;-83
2023/08/23 09:32:20;;;;;;;5.50;2.43;;;27.00;99.90;;;;;;4861680;29;20195;-82
2023/08/23 09:34:46;;;;;;;4.20;2.10;;;26.80;99.90;;;;;;4861948;29;20413;-82
2023/08/23 09:37:11;;;;;;;4.50;2.23;;;27.40;99.90;;;;;;4861362;29;20569;-83
2023/08/23 09:39:37;;;;;;;5.33;2.17;;;27.70;99.90;;;;;;4861851;29;20950;-83
2023/08/23 09:42:05;;;;;;;10.63;2.33;;;28.20;99.90;;;;;;4861598;29;20208;-83
2023/08/23 09:44:37;;;;;;;5.10;2.53;;;28.40;99.90;;;;;;4861703;29;20191;-83
2023/08/23 09:47:05;;;;;;;3.63;1.87;;;28.60;99.90;;;;;;4861415;29;20903;-84
2023/08/23 09:49:34;;;;;;;5.20;2.00;;;28.90;99.90;;;;;;4861725;29;20433;-83
2023/08/23 09:52:01;;;;;;;4.60;1.90;;;29.00;99.90;;;;;;4861369;29;20464;-83
2023/08/23 09:54:41;;;;;;;4.07;2.20;;;28.30;99.90;;;;;;4861054;29;20421;-83
2023/08/23 09:57:07;;;;;;;8.07;2.73;;;28.10;99.90;;;;;;4861496;29;20818;-83
2023/08/23 09:59:33;;;;;;;4.23;2.43;;;27.80;99.90;;;;;;4861521;29;20457;-82
2023/08/23 10:02:01;;;;;;;4.83;2.30;;;27.50;99.90;;;;;;4861391;29;20253;-82
2023/08/23 10:04:28;;;;;;;6.40;2.67;;;27.10;99.90;;;;;;4861498;29;20506;-82
2023/08/23 10:06:54;;;;;;;5.93;2.13;;;27.50;99.90;;;;;;4861385;29;20473;-82
2023/08/23 10:09:21;;;;;;;3.00;2.07;;;28.20;99.90;;;;;;4861268;29;20476;-83
2023/08/23 10:11:48;;;;;;;5.60;2.27;;;29.20;99.90;;;;;;4861392;29;20412;-83
2023/08/23 10:14:15;;;;;;;4.33;2.33;;;29.30;99.90;;;;;;4861124;29;20417;-83
2023/08/23 10:16:42;;;;;;;4.90;2.40;;;29.50;99.90;;;;;;4861134;29;20413;-82
2023/08/23 10:19:09;;;;;;;6.87;2.50;;;29.50;99.90;;;;;;4861082;29;20433;-83
2023/08/23 10:21:34;;;;;;;7.97;2.23;;;29.60;99.90;;;;;;4861011;29;20804;-82
2023/08/23 10:24:04;;;;;;;3.97;2.27;;;29.60;99.90;;;;;;4861002;29;20421;-82
2023/08/23 10:26:44;;;;;;;9.50;3.00;;;28.90;99.90;;;;;;4860817;29;20581;-82
2023/08/23 10:29:10;;;;;;;6.00;2.33;;;28.80;99.90;;;;;;4859406;29;20428;-82
2023/08/23 10:31:35;;;;;;;4.20;2.30;;;28.70;99.90;;;;;;4860699;29;20417;-83
2023/08/23 10:34:01;;;;;;;3.77;2.27;;;28.90;99.90;;;;;;4860761;29;20614;-83
2023/08/23 10:36:29;;;;;;;3.93;2.10;;;28.80;99.90;;;;;;4860536;29;20180;-83
2023/08/23 10:38:56;;;;;;;5.07;2.17;;;29.60;99.90;;;;;;4861015;29;20173;-82
2023/08/23 10:41:25;;;;;;;7.80;2.57;;;29.60;99.90;;;;;;4860756;29;20417;-82
2023/08/23 10:43:52;;;;;;;5.30;2.10;;;29.50;99.90;;;;;;4860932;29;20893;-82
2023/08/23 10:46:19;;;;;;;6.43;2.63;;;29.70;99.90;;;;;;4860834;29;20440;-83
2023/08/23 10:48:46;;;;;;;3.90;2.30;;;29.40;99.90;;;;;;4861051;29;20433;-82
2023/08/23 10:51:12;;;;;;;9.53;2.87;;;28.20;99.90;;;;;;4860707;29;20425;-83
2023/08/23 10:53:40;;;;;;;4.40;2.57;;;28.10;99.90;;;;;;4861006;29;20420;-82
2023/08/23 10:56:07;;;;;;;9.17;3.30;;;28.20;99.90;;;;;;4860708;29;20461;-83
2023/08/23 10:58:33;;;;;;;4.07;2.40;;;28.30;99.90;;;;;;4860580;29;20849;-83
2023/08/23 11:00:59;;;;;;;9.80;4.10;;;28.70;99.90;;;;;;4861158;29;20436;-82
2023/08/23 11:03:28;;;;;;;9.40;4.70;;;28.90;99.90;;;;;;4860588;29;20514;-83
2023/08/23 11:05:54;;;;;;;5.77;3.90;;;28.90;99.90;;;;;;4861098;29;20417;-82
2023/08/23 11:08:21;;;;;;;8.20;3.70;;;29.00;99.90;;;;;;4864176;29;20465;-82
2023/08/23 11:10:47;;;;;;;6.63;3.67;;;29.00;99.90;;;;;;4864640;29;20514;-83
2023/08/23 11:13:12;;;;;;;7.67;4.27;;;28.70;99.90;;;;;;4864769;29;20429;-82
2023/08/23 11:15:38;;;;;;;6.43;3.73;;;28.60;99.90;;;;;;4864700;29;20190;-82
2023/08/23 11:18:05;;;;;;;11.33;3.80;;;29.10;99.90;;;;;;4864365;29;20184;-83
2023/08/23 11:20:31;;;;;;;6.87;3.80;;;29.60;99.90;;;;;;4864084;29;20424;-83
2023/08/23 11:22:57;;;;;;;8.37;4.20;;;28.70;99.90;;;;;;4864350;29;20794;-82
2023/08/23 11:25:23;;;;;;;5.80;3.17;;;29.40;99.90;;;;;;4864005;29;20462;-83
2023/08/23 11:27:48;;;;;;;6.53;4.13;;;29.90;99.90;;;;;;4864211;29;20188;-83
2023/08/23 11:30:14;;;;;;;11.03;4.20;;;29.70;99.90;;;;;;4862707;29;20180;-83
2023/08/23 11:32:40;;;;;;;7.40;3.40;;;29.80;99.90;;;;;;4864330;29;20629;-83
2023/08/23 11:35:06;;;;;;;5.40;3.03;;;29.70;99.90;;;;;;4864413;29;20176;-82
2023/08/23 11:37:36;;;;;;;5.33;2.67;;;30.20;99.90;;;;;;4864162;29;20436;-83
2023/08/23 11:40:10;;;;;;;5.77;3.30;;;30.10;99.90;;;;;;4864020;29;20421;-83
2023/08/23 11:42:36;;;;;;;6.70;2.77;;;30.10;99.90;;;;;;4863688;29;20456;-83
2023/08/23 11:45:04;;;;;;;5.00;2.67;;;30.50;99.90;;;;;;4862753;29;20910;-82
2023/08/23 11:47:30;;;;;;;9.33;3.57;;;30.50;99.90;;;;;;4863664;29;20436;-82
2023/08/23 11:49:56;;;;;;;9.20;2.83;;;30.50;99.90;;;;;;4864031;29;20433;-82
2023/08/23 11:52:22;;;;;;;6.57;2.63;;;30.80;99.90;;;;;;4863522;29;20473;-83
2023/08/23 11:54:51;;;;;;;5.47;2.60;;;30.60;99.90;;;;;;4863376;29;20890;-83
2023/08/23 11:57:17;;;;;;;5.87;2.67;;;30.90;99.90;;;;;;4863519;29;20184;-83
2023/08/23 11:59:43;;;;;;;4.60;2.20;;;30.80;99.90;;;;;;4863853;29;20913;-83
2023/08/23 12:02:09;;;;;;;5.80;2.70;;;30.60;99.90;;;;;;4863340;29;20212;-85
2023/08/23 12:04:34;;;;;;;4.07;2.30;;;31.00;99.90;;;;;;4863191;29;20867;-83
2023/08/23 12:07:00;;;;;;;6.30;2.50;;;31.00;99.90;;;;;;4862332;29;20226;-83
2023/08/23 12:09:26;;;;;;;3.50;2.27;;;31.90;99.90;;;;;;4863494;29;20227;-83
2023/08/23 12:11:53;;;;;;;2.70;2.40;;;31.40;99.90;;;;;;4862965;29;20187;-83
2023/08/23 12:14:19;;;;;;;5.40;1.97;;;31.60;99.90;;;;;;4863087;29;20691;-82
2023/08/23 12:16:44;;;;;;;6.93;2.20;;;32.00;99.90;;;;;;4862997;29;20523;-83
2023/08/23 12:19:10;;;;;;;3.13;1.90;;;31.90;99.90;;;;;;4863084;29;20425;-87
2023/08/23 12:21:35;;;;;;;5.07;2.03;;;31.70;99.90;;;;;;4863163;29;20368;-83
2023/08/23 12:24:01;;;;;;;6.07;2.13;;;31.30;99.90;;;;;;4863353;29;20513;-84
2023/08/23 12:26:27;;;;;;;2.67;1.40;;;31.60;99.90;;;;;;4862765;29;20184;-85
2023/08/23 12:28:52;;;;;;;2.10;1.50;;;31.70;99.90;;;;;;4862964;29;20192;-85
2023/08/23 12:31:19;;;;;;;4.13;1.67;;;31.50;99.90;;;;;;4862528;29;20189;-85
2023/08/23 12:33:45;;;;;;;2.73;1.90;;;31.50;99.90;;;;;;4863035;29;20576;-84
2023/08/23 12:36:13;;;;;;;4.50;1.90;;;31.50;99.90;;;;;;4863061;29;20409;-83
2023/08/23 12:38:38;;;;;;;3.77;1.93;;;32.00;99.90;;;;;;4861613;29;20944;-84
2023/08/23 12:41:04;;;;;;;2.10;1.80;;;32.00;99.90;;;;;;4861724;29;20432;-83